Latest Weather Observations for Hopetoun North

IDW60801

Issued at 12:02 pm WST Thursday 11 February 2016 (issued every 30 minutes, with the page automatically refreshed every 10 minutes)

About weather observations | Map of weather stations | Latest weather observations for WA | Other Formats
Station Details ID: 009961 Name: HOPETOUN NORTH Lat: -33.93 Lon: 120.13 Height: 26.0 m
Data from the previous 72 hours. | See also: Recent months at Hopetoun North
Date/Time
WST
Temp
°C
App
Temp
°C
Dew
Point
Rel
Hum
%
Delta-T
°C
Wind Press
QNH
hPa
Press
MSL
hPa
Rain
since 9 am
mm
Dir
 
Spd
km/h
Gust
km/h
Spd
kts
Gust
kts
11/12:00pm 21.4 20.1 17.2 77 2.6 SSW 20 26 11 14 1012.7 1012.7 0.0
11/11:30am 21.7 20.3 17.1 75 2.8 SSW 20 30 11 16 1012.8 1012.8 0.0
11/11:00am 20.8 18.6 16.8 78 2.4 SSW 24 32 13 17 1013.1 1013.1 0.0
11/10:30am 20.9 19.2 17.3 80 2.2 SW 22 32 12 17 1013.4 1013.4 0.0
11/10:00am 21.4 20.3 17.4 78 2.5 SW 19 24 10 13 1013.4 1013.4 0.0
11/09:30am 21.6 21.0 17.6 78 2.5 SW 17 20 9 11 1013.5 1013.5 0.0
11/09:00am 23.1 24.8 18.6 76 2.8 WSW 7 17 4 9 1013.6 1013.6 0.0
11/08:30am 23.3 25.0 18.6 75 3.0 NNW 7 11 4 6 1013.6 1013.6 0.0
11/08:00am 21.7 24.1 18.9 84 1.8 NNW 4 6 2 3 1013.7 1013.7 0.0
11/07:30am 20.4 23.5 18.7 90 1.1 CALM 0 2 0 1 1013.9 1013.9 0.0
11/07:00am 19.5 22.5 19.3 99 0.1 NW 2 4 1 2 1014.2 1014.2 0.0
11/06:30am 19.4 22.7 19.2 99 0.1 CALM 0 0 0 0 1014.3 1014.3 0.0
11/06:00am 18.7 21.3 18.5 99 0.1 ENE 2 4 1 2 1014.2 1014.2 0.0
11/05:30am 18.6 20.8 18.3 98 0.2 NE 4 6 2 3 1014.0 1014.0 0.0
11/05:00am 16.8 19.0 16.5 98 0.2 CALM 0 0 0 0 1014.0 1014.0 0.0
11/04:30am 17.5 18.8 17.2 98 0.2 ENE 6 9 3 5 1013.8 1013.8 0.0
11/04:00am 17.8 19.1 17.2 96 0.4 ENE 6 9 3 5 1013.9 1013.9 0.0
11/03:30am 17.8 19.1 17.2 96 0.4 E 6 9 3 5 1014.1 1014.1 0.0
11/03:00am 17.9 19.0 17.1 95 0.5 ENE 7 11 4 6 1013.9 1013.9 0.0
11/02:30am 17.9 19.0 17.1 95 0.5 ESE 7 11 4 6 1014.2 1014.2 0.0
11/02:00am 18.0 18.8 17.2 95 0.5 ESE 9 13 5 7 1014.3 1014.3 0.0
11/01:30am 18.1 19.0 17.5 96 0.4 SE 9 15 5 8 1015.0 1015.0 0.0
11/01:00am 18.2 19.1 17.6 96 0.4 SE 9 15 5 8 1015.1 1015.1 0.0
11/12:30am 18.0 18.5 17.4 96 0.4 SSE 11 17 6 9 1015.5 1015.4 0.0
11/12:00am 17.9 18.3 17.3 96 0.4 SE 11 15 6 8 1015.7 1015.6 0.0
 
Date/Time
WST
Temp
°C
App
Temp
°C
Dew
Point
Rel
Hum
%
Delta-T
°C
Wind Press
QNH
hPa
Press
MSL
hPa
Rain
since 9 am
mm
Dir
 
Spd
km/h
Gust
km/h
Spd
kts
Gust
kts
10/11:30pm 17.9 18.7 17.3 96 0.4 SE 9 13 5 7 1015.8 1015.7 0.0
10/11:00pm 18.0 18.8 17.2 95 0.5 ESE 9 15 5 8 1016.2 1016.1 0.0
10/10:30pm 17.9 18.2 16.9 94 0.6 SE 11 19 6 10 1016.4 1016.3 0.0
10/10:00pm 18.0 18.3 17.0 94 0.6 SE 11 17 6 9 1016.6 1016.5 0.0
10/09:30pm 18.1 18.8 17.1 94 0.6 SE 9 13 5 7 1016.9 1016.8 0.0
10/09:00pm 18.1 18.8 17.0 93 0.7 SE 9 17 5 9 1016.8 1016.7 0.0
10/08:30pm 18.3 18.6 17.0 92 0.8 SE 11 17 6 9 1016.6 1016.5 0.0
10/08:00pm 18.8 18.6 16.8 88 1.2 SE 13 20 7 11 1016.4 1016.3 0.0
10/07:30pm 20.8 21.4 18.7 88 1.3 SE 13 19 7 10 1016.4 1016.3 0.0
10/07:00pm 21.0 22.2 19.1 89 1.2 SE 11 19 6 10 1016.2 1016.1 0.0
10/06:30pm 19.0 18.9 17.0 88 1.2 SE 13 20 7 11 1016.1 1016.0 0.0
10/06:00pm 19.8 19.9 17.4 86 1.5 SE 13 20 7 11 1015.8 1015.7 0.0
10/05:30pm 19.4 18.6 17.0 86 1.5 SSE 17 22 9 12 1015.7 1015.6 0.0
10/05:00pm 19.6 19.1 16.8 84 1.7 SE 15 20 8 11 1015.5 1015.4 0.0
10/04:30pm 19.7 18.7 16.7 83 1.8 SSE 17 24 9 13 1015.3 1015.3 0.0
10/04:00pm 20.0 18.6 16.6 81 2.1 SSE 19 24 10 13 1015.3 1015.3 0.0
10/03:30pm 20.2 18.9 16.8 81 2.1 SSE 19 24 10 13 1015.7 1015.6 0.0
10/03:00pm 20.8 19.5 16.8 78 2.4 SSE 19 24 10 13 1015.7 1015.6 0.0
10/02:30pm 22.4 21.6 18.0 76 2.7 SSE 19 24 10 13 1015.8 1015.7 0.0
10/02:00pm 21.9 20.9 17.5 76 2.7 S 19 24 10 13 1015.9 1015.8 0.0
10/01:30pm 21.5 20.5 16.7 74 2.9 S 17 24 9 13 1016.3 1016.2 0.0
10/01:00pm 21.8 21.3 17.0 74 2.9 SSE 15 24 8 13 1016.4 1016.3 0.0
10/12:30pm 20.6 19.8 16.0 75 2.8 S 15 22 8 12 1016.6 1016.5 0.0
10/12:00pm 20.9 20.6 16.5 76 2.7 S 13 20 7 11 1016.8 1016.7 0.0
10/11:30am 20.4 20.5 16.6 79 2.3 S 11 17 6 9 1017.2 1017.1 0.0
10/11:00am 20.8 21.1 17.0 79 2.3 S 11 15 6 8 1017.5 1017.4 0.0
10/10:30am 20.3 20.9 16.9 81 2.1 SSE 9 15 5 8 1017.7 1017.6 0.0
10/10:00am 20.3 20.7 17.3 83 1.8 S 11 15 6 8 1018.0 1017.9 0.0
10/09:30am 19.9 20.2 17.1 84 1.7 S 11 15 6 8 1017.9 1017.8 0.0
10/09:00am 19.9 20.6 17.1 84 1.7 SSE 9 13 5 7 1017.9 1017.8 0.0
10/08:30am 19.6 20.0 17.2 86 1.5 SSW 11 13 6 7 1018.0 1017.9 0.0
10/08:00am 19.4 19.9 17.4 88 1.2 S 11 15 6 8 1017.9 1017.8 0.0
10/07:30am 19.3 20.2 17.6 90 1.0 S 9 13 5 7 1017.8 1017.7 0.0
10/07:00am 19.1 20.7 17.8 92 0.8 SSW 6 9 3 5 1017.7 1017.6 0.0
10/06:30am 18.9 20.3 17.7 93 0.7 S 7 13 4 7 1017.5 1017.4 0.0
10/06:00am 18.8 19.8 17.8 94 0.6 SW 9 15 5 8 1017.4 1017.3 0.0
10/05:30am 18.8 19.5 18.0 95 0.5 SW 11 19 6 10 1017.2 1017.1 0.0
10/05:00am 18.8 19.5 18.0 95 0.5 SW 11 15 6 8 1017.0 1016.9 0.0
10/04:30am 18.8 18.8 18.0 95 0.5 SSW 15 19 8 10 1016.7 1016.6 0.0
10/04:00am 18.9 18.6 18.2 96 0.4 SSW 17 20 9 11 1016.5 1016.4 0.0
10/03:30am 19.0 18.4 18.5 97 0.3 SSW 19 22 10 12 1016.2 1016.1 0.0
10/03:00am 19.2 18.8 18.9 98 0.2 SW 19 26 10 14 1016.1 1016.0 0.0
10/02:30am 19.1 18.7 18.9 99 0.1 SW 19 24 10 13 1015.8 1015.7 0.0
10/02:00am 19.3 19.4 19.1 99 0.1 SW 17 24 9 13 1015.6 1015.5 0.0
10/01:30am 19.4 19.1 19.2 99 0.1 SW 19 28 10 15 1015.7 1015.6 0.0
10/01:00am 19.5 19.3 19.3 99 0.1 SW 19 24 10 13 1015.5 1015.4 0.0
10/12:30am 19.7 19.6 19.5 99 0.1 SW 19 24 10 13 1015.8 1015.7 0.0
10/12:00am 19.5 19.7 19.3 99 0.1 SW 17 20 9 11 1016.0 1015.9 0.0
 
Date/Time
WST
Temp
°C
App
Temp
°C
Dew
Point
Rel
Hum
%
Delta-T
°C
Wind Press
QNH
hPa
Press
MSL
hPa
Rain
since 9 am
mm
Dir
 
Spd
km/h
Gust
km/h
Spd
kts
Gust
kts
09/11:30pm 19.6 19.8 19.4 99 0.1 SW 17 22 9 12 1016.0 1015.9 0.0
09/11:00pm 19.4 19.9 19.2 99 0.1 SW 15 20 8 11 1016.1 1016.0 0.0
09/10:30pm 19.5 20.0 19.3 99 0.1 SW 15 20 8 11 1016.1 1016.0 0.0
09/10:00pm 18.9 20.3 18.7 99 0.1 SW 9 15 5 8 1016.4 1016.3 0.0
09/09:30pm 18.8 20.5 18.6 99 0.1 WSW 7 11 4 6 1016.3 1016.2 0.0
09/09:00pm 18.9 20.7 18.4 97 0.3 SSW 6 7 3 4 1016.1 1016.0 0.0
09/08:30pm 19.0 20.8 18.2 95 0.5 S 6 7 3 4 1015.8 1015.7 0.0
09/08:00pm 19.5 21.3 18.3 93 0.7 SW 6 7 3 4 1015.5 1015.4 0.0
09/07:30pm 20.6 21.2 18.5 88 1.3 SSW 13 17 7 9 1015.1 1015.1 0.0
09/07:00pm 21.5 21.7 17.7 79 2.3 SSW 13 20 7 11 1014.8 1014.8 0.0
09/06:30pm 21.2 20.9 16.4 74 2.9 SSW 13 19 7 10 1014.4 1014.4 0.0
09/06:00pm 23.7 23.1 14.7 57 5.3 S 11 19 6 10 1014.0 1014.0 0.0
09/05:30pm 24.8 22.3 14.0 51 6.4 SSE 20 32 11 17 1013.8 1013.8 0.0
09/05:00pm 24.2 23.0 16.2 61 4.9 SSE 17 30 9 16 1013.5 1013.5 0.0
09/04:30pm 28.1 24.4 12.8 38 9.0 ESE 24 32 13 17 1012.9 1012.9 0.0
09/04:00pm 26.8 23.6 14.2 46 7.5 E 24 32 13 17 1013.0 1013.0 0.0
09/03:30pm 26.7 23.1 14.1 46 7.5 ESE 26 35 14 19 1013.0 1013.0 0.0
09/03:00pm 27.3 24.1 14.3 45 7.8 ESE 24 33 13 18 1013.2 1013.2 0.0
09/02:30pm 27.6 24.3 13.9 43 8.2 ESE 24 33 13 18 1013.4 1013.4 0.0
09/02:00pm 27.5 24.3 14.2 44 8.0 ESE 24 32 13 17 1013.5 1013.5 0.0
09/01:30pm 28.5 24.9 13.2 39 9.1 ESE 24 30 13 16 1013.7 1013.7 0.0
09/01:00pm 29.0 26.5 14.0 39 9.0 SE 20 28 11 15 1013.9 1013.9 0.0
09/12:30pm 30.4 28.8 14.9 39 9.5 SE 17 22 9 12 1014.0 1014.0 0.0
09/12:00pm 31.8 30.2 14.0 34 10.8 SE 15 19 8 10 1014.0 1014.0 0.0
09/11:30am 33.9 32.5 12.3 27 12.9 SE 11 15 6 8 1014.3 1014.3 0.0
09/11:00am 35.9 33.5 5.2 15 16.6 NE 7 13 4 7 1014.5 1014.5 0.0
09/10:30am 33.7 33.4 12.7 28 12.6 NE 6 13 3 7 1014.9 1014.9 0.0
09/10:00am 30.7 30.5 13.0 33 10.5 E 6 9 3 5 1015.6 1015.5 0.0
09/09:30am 28.2 28.7 15.1 44 8.0 ENE 6 9 3 5 1015.9 1015.8 0.0
09/09:00am 23.9 24.4 15.1 58 5.3 SE 6 13 3 7 1016.2 1016.1 0.0
09/08:30am 23.9 24.4 14.9 57 5.4 E 6 9 3 5 1016.4 1016.3 0.0
09/08:00am 23.2 23.5 14.5 58 5.1 ENE 6 7 3 4 1016.6 1016.5 0.0
09/07:30am 20.5 20.5 14.2 67 3.7 ENE 7 9 4 5 1016.6 1016.5 0.0
09/07:00am 18.0 17.5 13.7 76 2.4 ENE 9 11 5 6 1016.6 1016.5 0.0
09/06:30am 15.8 15.1 13.3 85 1.4 ENE 9 13 5 7 1016.4 1016.3 0.0
09/06:00am 14.2 13.0 12.9 92 0.7 ENE 11 13 6 7 1016.2 1016.1 0.0
09/05:30am 13.4 12.4 12.3 93 0.6 ENE 9 11 5 6 1016.1 1016.0 0.0
09/05:00am 13.0 11.4 11.7 92 0.7 NE 11 13 6 7 1015.9 1015.8 0.0
09/04:30am 14.0 12.2 12.0 88 1.1 NE 13 20 7 11 1015.7 1015.6 0.0
09/04:00am 14.4 11.5 12.3 87 1.1 NE 19 24 10 13 1015.7 1015.6 0.0
09/03:30am 13.8 10.9 12.2 90 0.9 NE 19 20 10 11 1015.9 1015.8 0.0
09/03:00am 13.8 11.6 12.2 90 0.9 NE 15 17 8 9 1016.2 1016.1 0.0
09/02:30am 14.2 12.1 12.4 89 1.0 NE 15 17 8 9 1016.3 1016.2 0.0
09/02:00am 14.7 13.1 12.7 88 1.1 NE 13 15 7 8 1016.5 1016.4 0.0
09/01:30am 14.9 13.3 12.9 88 1.1 NE 13 13 7 7 1016.8 1016.7 0.0
09/01:00am 15.1 13.7 13.3 89 1.0 NE 13 15 7 8 1017.0 1016.9 0.0
09/12:30am 15.2 13.5 13.6 90 0.9 NE 15 17 8 9 1017.3 1017.2 0.0
09/12:00am 16.1 15.1 14.6 91 0.9 ENE 13 17 7 9 1017.5 1017.4 0.0
 
Date/Time
WST
Temp
°C
App
Temp
°C
Dew
Point
Rel
Hum
%
Delta-T
°C
Wind Press
QNH
hPa
Press
MSL
hPa
Rain
since 9 am
mm
Dir
 
Spd
km/h
Gust
km/h
Spd
kts
Gust
kts
08/11:30pm 16.3 15.7 14.7 90 0.9 NE 11 13 6 7 1017.8 1017.7 0.0
08/11:00pm 17.1 16.3 15.1 88 1.2 NE 13 15 7 8 1017.9 1017.8 0.0
08/10:30pm 19.2 18.7 17.0 87 1.3 NE 15 17 8 9 1017.9 1017.8 0.0
08/10:00pm 17.5 16.1 14.6 83 1.7 NE 15 20 8 11 1018.0 1017.9 0.0
08/09:30pm 18.3 17.5 15.0 81 1.9 NE 13 19 7 10 1018.2 1018.1 0.0
08/09:00pm 18.3 17.0 14.8 80 2.0 ENE 15 24 8 13 1018.0 1017.9 0.0
08/08:30pm 18.6 17.0 14.9 79 2.2 ENE 17 22 9 12 1017.9 1017.8 0.0
08/08:00pm 19.0 16.9 14.7 76 2.5 ENE 19 26 10 14 1017.6 1017.5 0.0
08/07:30pm 19.6 17.3 14.6 73 2.9 ENE 20 30 11 16 1017.5 1017.4 0.0
08/07:00pm 20.1 18.0 14.7 71 3.2 E 19 30 10 16 1017.3 1017.2 0.0
08/06:30pm 21.3 19.2 14.7 66 3.9 E 19 28 10 15 1017.2 1017.1 0.0
08/06:00pm 21.1 19.3 15.9 72 3.1 E 20 30 11 16 1017.0 1016.9 0.0
08/05:30pm 21.4 19.6 16.1 72 3.2 ESE 20 32 11 17 1016.9 1016.8 0.0
08/05:00pm 21.3 18.5 16.3 73 3.0 ESE 26 35 14 19 1017.0 1016.9 0.0
08/04:30pm 21.8 19.1 16.5 72 3.2 ESE 26 43 14 23 1017.1 1017.0 0.0
08/04:00pm 22.5 19.7 16.3 68 3.8 ESE 26 39 14 21 1017.3 1017.2 0.0
08/03:30pm 22.1 18.7 15.9 68 3.7 ESE 28 39 15 21 1017.5 1017.4 0.0
08/03:00pm 22.9 20.0 16.2 66 4.1 ESE 26 35 14 19 1017.7 1017.6 0.0
08/02:30pm 22.4 18.8 16.2 68 3.8 ESE 30 44 16 24 1017.9 1017.8 0.0
08/02:00pm 22.2 18.1 16.0 68 3.7 ESE 32 44 17 24 1018.1 1018.0 0.0
08/01:30pm 23.1 19.9 16.4 66 4.1 ESE 28 41 15 22 1018.4 1018.3 0.0
08/01:00pm 22.2 18.1 16.0 68 3.7 ESE 32 39 17 21 1018.7 1018.6 0.0
08/12:30pm 22.3 18.6 16.1 68 3.7 ESE 30 41 16 22 1019.0 1018.9 0.0

Other Formats:

Comma delimited format used in spreadsheet applications
http://www.bom.gov.au/fwo/IDW60801/IDW60801.95635.axf

JavaScript Object Notation format (JSON) in row-major order
http://www.bom.gov.au/fwo/IDW60801/IDW60801.95635.json